createdAt,value
2023-02-09T00:00:04.893Z,6.20
2023-02-09T00:02:34.975Z,6.78
2023-02-09T00:05:05.081Z,6.60
2023-02-09T00:07:35.308Z,6.53
2023-02-09T00:10:05.632Z,6.05
2023-02-09T00:12:52.086Z,6.43
2023-02-09T00:15:22.370Z,6.13
2023-02-09T00:17:52.368Z,7.22
2023-02-09T00:20:22.668Z,7.43
2023-02-09T00:22:52.634Z,6.50
2023-02-09T00:25:22.730Z,6.28
2023-02-09T00:27:55.442Z,7.05
2023-02-09T00:30:25.591Z,6.15
2023-02-09T00:32:55.615Z,6.55
2023-02-09T00:35:25.959Z,6.18
2023-02-09T00:37:55.985Z,6.55
2023-02-09T00:40:26.516Z,6.32
2023-02-09T00:42:59.858Z,6.82
2023-02-09T00:45:30.975Z,6.07
2023-02-09T00:48:01.614Z,6.75
2023-02-09T00:50:32.353Z,6.07
2023-02-09T00:53:02.568Z,6.82
2023-02-09T00:55:32.567Z,5.97
2023-02-09T00:58:05.189Z,5.85
2023-02-09T01:00:35.445Z,6.32
2023-02-09T01:03:05.462Z,5.90
2023-02-09T01:05:36.221Z,6.13
2023-02-09T01:08:06.541Z,6.47
2023-02-09T01:10:37.094Z,5.90
2023-02-09T01:13:09.928Z,6.43
2023-02-09T01:15:42.754Z,6.38
2023-02-09T01:18:12.782Z,6.45
2023-02-09T01:20:44.499Z,5.18
2023-02-09T01:23:14.648Z,5.97
2023-02-09T01:25:45.052Z,5.55
2023-02-09T01:28:17.839Z,5.22
2023-02-09T01:30:48.412Z,5.88
2023-02-09T01:33:18.883Z,5.13
2023-02-09T01:35:48.983Z,5.18
2023-02-09T01:38:19.051Z,6.35
2023-02-09T01:40:51.118Z,6.03
2023-02-09T01:43:23.921Z,5.53
2023-02-09T01:45:55.648Z,4.88
2023-02-09T01:48:31.262Z,5.10
2023-02-09T01:51:03.400Z,4.68
2023-02-09T01:53:33.417Z,4.13
2023-02-09T01:56:08.774Z,4.80
2023-02-09T01:58:42.199Z,3.47
2023-02-09T02:01:12.619Z,4.68
2023-02-09T02:03:42.879Z,3.92
2023-02-09T02:06:15.728Z,3.72
2023-02-09T02:08:49.833Z,3.22
2023-02-09T02:11:20.448Z,2.75
2023-02-09T02:13:53.432Z,3.10
2023-02-09T02:16:37.276Z,3.47
2023-02-09T02:19:35.681Z,2.72
2023-02-09T02:22:37.641Z,2.70
2023-02-09T02:25:36.065Z,2.65
2023-02-09T02:28:24.862Z,2.88
2023-02-09T02:31:15.411Z,2.88
2023-02-09T02:33:52.427Z,3.15
2023-02-09T02:36:31.093Z,3.00
2023-02-09T02:39:10.223Z,2.95
2023-02-09T02:41:59.067Z,2.03
2023-02-09T02:44:32.307Z,2.20
2023-02-09T02:47:06.871Z,2.85
2023-02-09T02:49:45.538Z,3.08
2023-02-09T02:52:15.838Z,3.72
2023-02-09T02:54:51.049Z,2.85
2023-02-09T02:57:24.248Z,3.20
2023-02-09T02:59:57.237Z,2.95
2023-02-09T03:02:33.698Z,3.15
2023-02-09T03:05:08.164Z,2.20
2023-02-09T03:07:38.357Z,2.03
2023-02-09T03:10:27.936Z,2.55
2023-02-09T03:13:09.698Z,2.10
2023-02-09T03:15:53.430Z,2.75
2023-02-09T03:18:30.073Z,2.60
2023-02-09T03:21:07.831Z,2.42
2023-02-09T03:23:44.202Z,2.42
2023-02-09T03:26:20.080Z,2.75
2023-02-09T03:28:54.690Z,3.80
2023-02-09T03:31:26.060Z,2.85
2023-02-09T03:33:56.393Z,3.03
2023-02-09T03:36:35.364Z,3.38
2023-02-09T03:39:05.832Z,2.67
2023-02-09T03:41:35.997Z,2.67
2023-02-09T03:44:19.389Z,3.40
2023-02-09T03:46:49.633Z,3.22
2023-02-09T03:49:19.663Z,3.28
2023-02-09T03:51:52.327Z,3.15
2023-02-09T03:54:22.493Z,2.50
2023-02-09T03:56:52.671Z,2.92
2023-02-09T03:59:25.287Z,2.90
2023-02-09T04:01:55.844Z,2.65
2023-02-09T04:04:25.906Z,3.00
2023-02-09T04:06:59.232Z,2.40
2023-02-09T04:09:30.099Z,2.17
2023-02-09T04:12:00.231Z,3.17
2023-02-09T04:14:30.226Z,2.42
2023-02-09T04:17:00.710Z,2.15
2023-02-09T04:19:30.701Z,3.10
2023-02-09T04:22:03.844Z,3.40
2023-02-09T04:24:33.953Z,2.47
2023-02-09T04:27:04.044Z,2.95
2023-02-09T04:29:34.236Z,3.05
2023-02-09T04:32:04.409Z,3.38
2023-02-09T04:34:34.438Z,2.85
2023-02-09T04:37:07.166Z,3.13
2023-02-09T04:39:37.295Z,3.28
2023-02-09T04:42:07.618Z,3.13
2023-02-09T04:44:37.668Z,3.00
2023-02-09T04:47:07.803Z,3.20
2023-02-09T04:49:37.957Z,3.10
2023-02-09T04:52:10.774Z,3.33
2023-02-09T04:54:40.778Z,3.42
2023-02-09T04:57:23.575Z,3.03
2023-02-09T04:59:53.590Z,3.83
2023-02-09T05:02:23.957Z,3.15
2023-02-09T05:04:54.173Z,2.95
2023-02-09T05:07:27.114Z,3.25
2023-02-09T05:09:57.143Z,3.05
2023-02-09T05:12:27.201Z,3.25
2023-02-09T05:14:57.657Z,3.45
2023-02-09T05:17:27.921Z,2.88
2023-02-09T05:19:57.899Z,3.10
2023-02-09T05:22:30.697Z,2.63
2023-02-09T05:25:00.905Z,2.00
2023-02-09T05:27:31.055Z,3.38
2023-02-09T05:30:01.293Z,2.63
2023-02-09T05:32:31.342Z,3.78
2023-02-09T05:35:01.627Z,3.28
2023-02-09T05:37:34.350Z,3.72
2023-02-09T05:40:04.400Z,3.85
2023-02-09T05:42:34.512Z,3.67
2023-02-09T05:45:04.714Z,3.47
2023-02-09T05:47:34.956Z,3.10
2023-02-09T05:50:05.230Z,3.70
2023-02-09T05:52:37.849Z,3.05
2023-02-09T05:55:08.481Z,3.30
2023-02-09T05:57:38.591Z,2.90
2023-02-09T06:00:10.102Z,3.30
2023-02-09T06:02:40.250Z,2.65
2023-02-09T06:05:11.165Z,3.30
2023-02-09T06:07:43.822Z,3.30
2023-02-09T06:10:14.116Z,3.05
2023-02-09T06:12:44.407Z,2.78
2023-02-09T06:15:16.430Z,3.05
2023-02-09T06:17:46.593Z,2.85
2023-02-09T06:20:19.821Z,2.92
2023-02-09T06:22:52.509Z,3.20
2023-02-09T06:25:22.724Z,3.25
2023-02-09T06:27:52.790Z,3.38
2023-02-09T06:30:23.174Z,3.30
2023-02-09T06:32:53.420Z,2.95
2023-02-09T06:35:23.427Z,3.08
2023-02-09T06:38:00.138Z,3.38
2023-02-09T06:40:30.457Z,3.75
2023-02-09T06:43:00.487Z,3.63
2023-02-09T06:45:30.593Z,3.08
2023-02-09T06:48:00.828Z,3.67
2023-02-09T06:50:31.234Z,3.85
2023-02-09T06:53:04.657Z,2.88
2023-02-09T06:55:34.927Z,4.03
2023-02-09T06:58:05.185Z,3.60
2023-02-09T07:00:35.358Z,3.78
2023-02-09T07:03:05.983Z,3.28
2023-02-09T07:05:36.317Z,3.67
2023-02-09T07:08:09.099Z,2.83
2023-02-09T07:10:39.366Z,4.20
2023-02-09T07:13:09.646Z,3.22
2023-02-09T07:15:39.763Z,3.67
2023-02-09T07:18:09.842Z,3.45
2023-02-09T07:20:39.830Z,2.67
2023-02-09T07:23:13.207Z,3.45
2023-02-09T07:25:43.176Z,3.38
2023-02-09T07:28:13.605Z,3.60
2023-02-09T07:30:43.796Z,2.65
2023-02-09T07:33:14.235Z,3.25
2023-02-09T07:35:44.442Z,2.67
2023-02-09T07:38:17.631Z,3.15
2023-02-09T07:40:48.103Z,3.85
2023-02-09T07:43:18.394Z,3.55
2023-02-09T07:45:48.417Z,3.90
2023-02-09T07:48:18.760Z,3.60
2023-02-09T07:50:52.030Z,3.60
2023-02-09T07:53:25.141Z,3.35
2023-02-09T07:55:55.405Z,3.08
2023-02-09T07:58:26.301Z,2.80
2023-02-09T08:00:56.751Z,3.63
2023-02-09T08:03:27.862Z,3.58
2023-02-09T08:06:01.250Z,3.58
2023-02-09T08:08:34.070Z,4.05
2023-02-09T08:11:05.584Z,3.20
2023-02-09T08:13:41.669Z,4.15
2023-02-09T08:16:15.019Z,3.97
2023-02-09T08:18:50.970Z,3.63
2023-02-09T08:21:21.971Z,4.13
2023-02-09T08:23:58.372Z,3.60
2023-02-09T08:26:28.640Z,3.42
2023-02-09T08:29:00.312Z,3.70
2023-02-09T08:31:30.592Z,4.03
2023-02-09T08:34:00.713Z,4.43
2023-02-09T08:36:30.897Z,3.75
2023-02-09T08:39:03.669Z,4.18
2023-02-09T08:41:33.910Z,5.05
2023-02-09T08:44:04.056Z,4.00
2023-02-09T08:46:34.204Z,4.40
2023-02-09T08:49:04.645Z,4.40
2023-02-09T08:51:34.834Z,4.85
2023-02-09T08:54:07.796Z,5.22
2023-02-09T08:56:37.828Z,4.45
2023-02-09T08:59:08.472Z,2.95
2023-02-09T09:01:40.662Z,3.72
2023-02-09T09:04:11.269Z,4.32
2023-02-09T09:06:41.499Z,3.95
2023-02-09T09:09:14.311Z,4.90
2023-02-09T09:11:44.388Z,4.15
2023-02-09T09:14:14.735Z,3.88
2023-02-09T09:16:44.895Z,5.15
2023-02-09T09:19:15.247Z,5.18
2023-02-09T09:21:45.353Z,4.93
2023-02-09T09:24:18.886Z,5.80
2023-02-09T09:26:49.188Z,4.97
2023-02-09T09:29:19.397Z,5.05
2023-02-09T09:31:49.915Z,4.90
2023-02-09T09:34:20.394Z,4.15
2023-02-09T09:36:50.601Z,4.35
2023-02-09T09:39:23.387Z,4.65
2023-02-09T09:41:56.194Z,4.35
2023-02-09T09:44:33.873Z,5.53
2023-02-09T09:49:38.228Z,5.15
2023-02-09T09:52:11.937Z,5.10
2023-02-09T09:54:46.307Z,5.25
2023-02-09T09:57:24.521Z,5.82
2023-02-09T09:59:55.432Z,5.93
2023-02-09T10:02:30.177Z,5.85
2023-02-09T10:05:13.192Z,6.05
2023-02-09T10:07:46.379Z,5.90
2023-02-09T10:10:22.627Z,5.97
2023-02-09T10:12:54.746Z,5.82
2023-02-09T10:15:30.940Z,5.35
2023-02-09T10:18:01.997Z,6.20
2023-02-09T10:20:49.598Z,6.60
2023-02-09T10:23:23.372Z,6.32
2023-02-09T10:26:01.691Z,6.28
2023-02-09T10:28:34.365Z,7.20
2023-02-09T10:31:12.308Z,7.25
2023-02-09T10:33:46.483Z,6.60
2023-02-09T10:36:28.173Z,7.00
2023-02-09T10:39:15.884Z,8.07
2023-02-09T10:41:50.462Z,7.03
2023-02-09T10:44:24.652Z,8.27
2023-02-09T10:47:13.042Z,7.00
2023-02-09T10:49:43.321Z,8.57
2023-02-09T10:52:20.813Z,8.02
2023-02-09T10:57:30.657Z,7.82
2023-02-09T11:00:03.347Z,7.60
2023-02-09T11:02:41.299Z,7.03
2023-02-09T11:05:42.968Z,8.18
2023-02-09T11:08:22.171Z,7.68
2023-02-09T11:11:02.916Z,7.50
2023-02-09T11:13:37.154Z,7.88
2023-02-09T11:16:47.315Z,7.75
2023-02-09T11:19:42.614Z,8.23
2023-02-09T11:22:17.026Z,8.02
2023-02-09T11:25:03.446Z,8.07
2023-02-09T11:27:47.993Z,8.18
2023-02-09T11:30:55.626Z,8.23
2023-02-09T11:33:31.603Z,8.52
2023-02-09T11:36:05.968Z,9.18
2023-02-09T11:38:39.205Z,8.05
2023-02-09T11:41:27.962Z,8.18
2023-02-09T11:44:01.145Z,7.80
2023-02-09T11:46:36.547Z,8.20
2023-02-09T11:49:15.663Z,7.70
2023-02-09T11:51:58.326Z,7.80
2023-02-09T11:54:35.710Z,7.65
2023-02-09T11:57:17.595Z,7.30
2023-02-09T11:59:56.501Z,7.60
2023-02-09T12:02:46.470Z,8.35
2023-02-09T12:05:21.129Z,7.60
2023-02-09T12:08:12.185Z,8.15
2023-02-09T12:10:51.741Z,7.28
2023-02-09T12:13:39.491Z,7.93
2023-02-09T12:16:15.869Z,8.35
2023-02-09T12:18:49.248Z,7.25
2023-02-09T12:21:32.520Z,7.68
2023-02-09T12:24:02.787Z,7.70
2023-02-09T12:26:57.802Z,7.57
2023-02-09T12:29:37.705Z,7.63
2023-02-09T12:32:30.881Z,7.32
2023-02-09T12:35:28.728Z,7.65
2023-02-09T12:38:19.185Z,8.05
2023-02-09T12:41:05.792Z,8.55
2023-02-09T12:43:37.278Z,7.75
2023-02-09T12:46:16.730Z,8.00
2023-02-09T12:48:56.014Z,7.22
2023-02-09T12:51:50.931Z,7.80
2023-02-09T12:54:43.345Z,7.75
2023-02-09T12:57:43.156Z,7.68
2023-02-09T13:00:35.918Z,8.43
2023-02-09T13:03:42.468Z,8.63
2023-02-09T13:06:28.393Z,7.78
2023-02-09T13:09:05.973Z,8.25
2023-02-09T13:11:49.417Z,8.13
2023-02-09T13:14:22.446Z,8.15
2023-02-09T13:17:31.303Z,8.85
2023-02-09T13:20:30.135Z,7.82
2023-02-09T13:23:16.572Z,8.38
2023-02-09T13:25:49.651Z,8.70
2023-02-09T13:28:22.800Z,9.30
2023-02-09T13:30:53.152Z,8.10
2023-02-09T13:33:36.629Z,8.52
2023-02-09T13:36:24.773Z,8.57
2023-02-09T13:38:55.660Z,7.75
2023-02-09T13:41:37.206Z,8.70
2023-02-09T13:44:24.512Z,8.63
2023-02-09T13:46:57.065Z,9.38
2023-02-09T13:49:28.224Z,8.15
2023-02-09T13:54:43.865Z,9.00
2023-02-09T13:57:33.480Z,7.80
2023-02-09T14:00:12.890Z,9.02
2023-02-09T14:02:44.977Z,9.35
2023-02-09T14:05:25.828Z,9.60
2023-02-09T14:07:56.692Z,9.05
2023-02-09T14:10:28.974Z,9.52
2023-02-09T14:13:03.671Z,8.63
2023-02-09T14:15:52.267Z,9.60
2023-02-09T14:18:45.316Z,8.35
2023-02-09T14:21:37.532Z,9.27
2023-02-09T14:24:18.427Z,8.93
2023-02-09T14:26:55.107Z,9.00
2023-02-09T14:29:29.964Z,10.05
2023-02-09T14:32:02.684Z,9.38
2023-02-09T14:34:36.492Z,9.68
2023-02-09T14:37:29.436Z,8.93
2023-02-09T14:40:04.618Z,9.55
2023-02-09T14:42:39.399Z,9.15
2023-02-09T14:45:33.978Z,8.63
2023-02-09T14:48:04.136Z,8.75
2023-02-09T14:50:34.542Z,8.80
2023-02-09T14:53:09.562Z,9.50
2023-02-09T14:55:40.836Z,8.15
2023-02-09T14:58:22.622Z,9.88
2023-02-09T15:00:57.266Z,8.95
2023-02-09T15:03:27.848Z,10.00
2023-02-09T15:06:03.551Z,9.25
2023-02-09T15:08:36.547Z,9.35
2023-02-09T15:11:29.039Z,9.60
2023-02-09T15:14:04.089Z,9.65
2023-02-09T15:16:36.945Z,9.80
2023-02-09T15:19:07.466Z,9.50
2023-02-09T15:21:37.543Z,9.63
2023-02-09T15:24:08.404Z,9.70
2023-02-09T15:26:39.891Z,9.65
2023-02-09T15:29:15.093Z,9.68
2023-02-09T15:31:48.011Z,10.23
2023-02-09T15:34:18.184Z,9.52
2023-02-09T15:36:48.498Z,9.93
2023-02-09T15:39:25.411Z,9.68
2023-02-09T15:42:07.880Z,8.95
2023-02-09T15:44:50.355Z,9.85
2023-02-09T15:47:35.464Z,10.43
2023-02-09T15:50:05.560Z,10.05
2023-02-09T15:52:35.823Z,10.82
2023-02-09T15:55:06.061Z,9.45
2023-02-09T15:57:36.601Z,9.65
2023-02-09T16:00:18.002Z,10.48
2023-02-09T16:02:51.757Z,10.90
2023-02-09T16:05:22.081Z,10.55
2023-02-09T16:07:53.456Z,9.38
2023-02-09T16:10:27.362Z,10.40
2023-02-09T16:12:58.271Z,10.82
2023-02-09T16:15:30.247Z,9.38
2023-02-09T16:18:03.165Z,9.80
2023-02-09T16:20:34.038Z,9.85
2023-02-09T16:23:19.833Z,10.25
2023-02-09T16:25:52.045Z,10.10
2023-02-09T16:30:55.165Z,9.00
2023-02-09T16:33:28.611Z,10.45
2023-02-09T16:36:00.785Z,9.98
2023-02-09T16:38:32.837Z,9.18
2023-02-09T16:41:03.170Z,9.93
2023-02-09T16:43:33.463Z,10.27
2023-02-09T16:46:07.485Z,10.35
2023-02-09T16:48:44.174Z,10.52
2023-02-09T16:51:17.779Z,10.48
2023-02-09T16:53:51.580Z,9.60
2023-02-09T16:56:25.008Z,9.73
2023-02-09T16:58:55.077Z,10.45
2023-02-09T17:01:26.483Z,10.23
2023-02-09T17:03:59.966Z,9.60
2023-02-09T17:06:32.894Z,9.75
2023-02-09T17:09:03.013Z,10.68
2023-02-09T17:11:33.267Z,9.60
2023-02-09T17:14:03.510Z,10.68
2023-02-09T17:16:36.337Z,10.68
2023-02-09T17:19:16.697Z,11.32
2023-02-09T17:21:47.276Z,10.52
2023-02-09T17:24:19.919Z,11.60
2023-02-09T17:26:50.101Z,9.43
2023-02-09T17:29:22.115Z,11.48
2023-02-09T17:31:53.751Z,11.65
2023-02-09T17:34:28.513Z,11.13
2023-02-09T17:36:58.673Z,10.23
2023-02-09T17:39:30.758Z,10.70
2023-02-09T17:42:01.075Z,10.95
2023-02-09T17:44:45.597Z,10.75
2023-02-09T17:47:19.575Z,11.65
2023-02-09T17:49:52.399Z,11.13
2023-02-09T17:52:23.383Z,12.07
2023-02-09T17:54:54.379Z,12.32
2023-02-09T17:57:27.683Z,11.52
2023-02-09T17:59:57.902Z,10.73
2023-02-09T18:02:28.064Z,11.32
2023-02-09T18:05:00.858Z,12.10
2023-02-09T18:07:31.287Z,9.55
2023-02-09T18:10:01.585Z,11.70
2023-02-09T18:12:31.763Z,11.80
2023-02-09T18:15:04.386Z,11.52
2023-02-09T18:17:34.511Z,11.77
2023-02-09T18:20:08.197Z,12.20
2023-02-09T18:22:38.523Z,10.85
2023-02-09T18:25:09.226Z,11.57
2023-02-09T18:27:39.491Z,11.55
2023-02-09T18:30:10.654Z,10.75
2023-02-09T18:32:41.154Z,10.63
2023-02-09T18:35:19.622Z,11.25
2023-02-09T18:37:49.986Z,12.07
2023-02-09T18:40:20.985Z,11.82
2023-02-09T18:42:51.416Z,11.48
2023-02-09T18:45:23.261Z,10.93
2023-02-09T18:47:53.458Z,11.40
2023-02-09T18:50:27.935Z,11.75
2023-02-09T18:53:00.030Z,12.15
2023-02-09T18:55:32.851Z,12.38
2023-02-09T18:58:05.476Z,12.38
2023-02-09T19:00:36.222Z,12.10
2023-02-09T19:03:06.512Z,11.73
2023-02-09T19:05:39.633Z,12.63
2023-02-09T19:08:10.458Z,11.25
2023-02-09T19:10:40.846Z,11.85
2023-02-09T19:13:11.213Z,11.32
2023-02-09T19:15:42.412Z,12.30
2023-02-09T19:20:45.162Z,11.35
2023-02-09T19:23:15.936Z,13.10
2023-02-09T19:25:46.277Z,12.13
2023-02-09T19:28:16.725Z,11.82
2023-02-09T19:30:49.739Z,13.00
2023-02-09T19:33:23.213Z,12.63
2023-02-09T19:36:02.535Z,13.35
2023-02-09T19:38:33.043Z,12.75
2023-02-09T19:41:10.651Z,12.30
2023-02-09T19:43:41.702Z,12.98
2023-02-09T19:46:13.332Z,12.35
2023-02-09T19:48:43.790Z,12.13
2023-02-09T19:51:16.720Z,13.23
2023-02-09T19:53:46.942Z,13.18
2023-02-09T19:56:19.568Z,13.48
2023-02-09T19:58:58.560Z,13.55
2023-02-09T20:01:31.412Z,12.82
2023-02-09T20:04:02.209Z,13.15
2023-02-09T20:09:20.722Z,13.23
2023-02-09T20:11:52.747Z,12.45
2023-02-09T20:14:22.882Z,12.40
2023-02-09T20:16:55.014Z,11.98
2023-02-09T20:19:25.945Z,12.55
2023-02-09T20:21:58.638Z,12.80
2023-02-09T20:24:28.890Z,13.38
2023-02-09T20:27:01.966Z,12.88
2023-02-09T20:29:32.260Z,12.60
2023-02-09T20:32:02.386Z,12.05
2023-02-09T20:34:32.877Z,13.40
2023-02-09T20:37:09.418Z,13.57
2023-02-09T20:39:39.722Z,12.35
2023-02-09T20:42:22.134Z,12.90
2023-02-09T20:45:04.670Z,12.80
2023-02-09T20:47:35.053Z,12.85
2023-02-09T20:50:05.342Z,13.13
2023-02-09T20:52:39.595Z,12.38
2023-02-09T20:55:10.207Z,12.40
2023-02-09T20:57:40.307Z,13.27
2023-02-09T21:00:12.388Z,13.55
2023-02-09T21:02:42.596Z,13.73
2023-02-09T21:05:13.162Z,13.55
2023-02-09T21:07:45.912Z,13.65
2023-02-09T21:10:16.509Z,13.63
2023-02-09T21:12:47.163Z,12.55
2023-02-09T21:15:17.678Z,13.07
2023-02-09T21:17:49.068Z,14.15
2023-02-09T21:20:19.849Z,13.48
2023-02-09T21:22:52.917Z,14.35
2023-02-09T21:25:23.399Z,14.30
2023-02-09T21:27:55.772Z,13.85
2023-02-09T21:30:26.144Z,13.65
2023-02-09T21:32:56.324Z,13.27
2023-02-09T21:35:26.966Z,13.23
2023-02-09T21:37:59.598Z,13.40
2023-02-09T21:40:29.839Z,13.90
2023-02-09T21:43:00.130Z,12.75
2023-02-09T21:45:30.377Z,14.48
2023-02-09T21:48:02.217Z,13.25
2023-02-09T21:50:32.390Z,13.73
2023-02-09T21:53:05.219Z,13.35
2023-02-09T21:55:36.173Z,13.60
2023-02-09T21:58:06.256Z,14.10
2023-02-09T22:00:36.322Z,13.45
2023-02-09T22:03:06.426Z,13.70
2023-02-09T22:05:36.607Z,13.57
2023-02-09T22:08:09.288Z,13.57
2023-02-09T22:10:39.620Z,13.57
2023-02-09T22:13:09.749Z,14.02
2023-02-09T22:15:43.242Z,13.85
2023-02-09T22:18:13.665Z,13.85
2023-02-09T22:20:44.570Z,13.43
2023-02-09T22:23:17.514Z,14.10
2023-02-09T22:25:47.657Z,12.18
2023-02-09T22:28:17.966Z,13.90
2023-02-09T22:30:48.660Z,14.10
2023-02-09T22:33:20.761Z,14.68
2023-02-09T22:35:51.305Z,13.10
2023-02-09T22:38:26.427Z,12.65
2023-02-09T22:40:56.742Z,14.32
2023-02-09T22:43:26.850Z,13.35
2023-02-09T22:45:58.326Z,13.00
2023-02-09T22:48:28.507Z,13.32
2023-02-09T22:50:59.028Z,13.18
2023-02-09T22:53:31.749Z,14.23
2023-02-09T22:56:05.051Z,13.48
2023-02-09T22:58:35.078Z,13.57
2023-02-09T23:01:05.205Z,13.57
2023-02-09T23:03:36.240Z,14.02
2023-02-09T23:06:07.876Z,12.73
2023-02-09T23:08:40.527Z,12.75
2023-02-09T23:11:13.894Z,13.88
2023-02-09T23:13:44.196Z,12.77
2023-02-09T23:16:16.722Z,12.88
2023-02-09T23:18:50.320Z,13.80
2023-02-09T23:21:21.646Z,12.85
2023-02-09T23:23:54.802Z,12.68
2023-02-09T23:26:25.325Z,12.95
2023-02-09T23:28:57.456Z,12.80
2023-02-09T23:31:28.049Z,11.73
2023-02-09T23:33:58.746Z,12.88
2023-02-09T23:36:30.160Z,13.07
2023-02-09T23:41:33.546Z,11.93
2023-02-09T23:44:03.941Z,11.25
2023-02-09T23:46:34.270Z,12.70
2023-02-09T23:49:04.396Z,12.13
2023-02-09T23:51:37.258Z,12.55
2023-02-09T23:54:10.386Z,12.18
2023-02-09T23:56:40.521Z,12.98
2023-02-09T23:59:15.828Z,12.93
